createdAt,value
2023-02-14T00:01:11.465Z,24.60
2023-02-14T00:06:16.372Z,20.48
2023-02-14T00:11:20.983Z,25.17
2023-02-14T00:16:27.446Z,24.65
2023-02-14T00:21:33.261Z,24.60
2023-02-14T00:26:39.599Z,24.23
2023-02-14T00:31:47.074Z,19.30
2023-02-14T00:36:51.735Z,20.95
2023-02-14T00:41:55.883Z,19.45
2023-02-14T00:47:02.353Z,21.27
2023-02-14T00:52:08.174Z,24.55
2023-02-14T00:57:12.727Z,20.67
2023-02-14T01:02:19.939Z,25.98
2023-02-14T01:07:24.537Z,20.77
2023-02-14T01:12:30.826Z,21.80
2023-02-14T01:17:36.794Z,22.67
2023-02-14T01:22:41.845Z,23.50
2023-02-14T01:27:46.383Z,20.08
2023-02-14T01:32:52.686Z,26.23
2023-02-14T01:37:58.335Z,24.65
2023-02-14T01:43:02.994Z,20.70
2023-02-14T01:48:09.791Z,21.48
2023-02-14T01:53:18.543Z,19.85
2023-02-14T01:58:27.574Z,20.25
2023-02-14T02:03:41.370Z,19.27
2023-02-14T02:08:55.797Z,24.57
2023-02-14T02:14:00.613Z,20.98
2023-02-14T02:19:36.512Z,19.88
2023-02-14T02:24:54.837Z,22.33
2023-02-14T02:31:08.993Z,18.33
2023-02-14T02:37:01.786Z,20.60
2023-02-14T02:42:20.400Z,19.17
2023-02-14T02:47:32.802Z,18.20
2023-02-14T02:53:06.462Z,18.00
2023-02-14T02:58:15.287Z,19.95
2023-02-14T03:03:40.280Z,20.23
2023-02-14T03:08:45.949Z,20.23
2023-02-14T03:14:10.521Z,14.48
2023-02-14T03:20:00.377Z,18.02
2023-02-14T03:25:23.870Z,16.02
2023-02-14T03:30:42.391Z,16.85
2023-02-14T03:36:02.188Z,15.05
2023-02-14T03:41:15.980Z,17.13
2023-02-14T03:46:26.919Z,17.55
2023-02-14T03:51:35.114Z,19.92
2023-02-14T03:56:48.382Z,20.35
2023-02-14T04:02:00.936Z,16.63
2023-02-14T04:07:12.152Z,18.38
2023-02-14T04:12:32.299Z,19.40
2023-02-14T04:17:59.590Z,17.25
2023-02-14T04:23:04.388Z,15.10
2023-02-14T04:28:10.305Z,19.10
2023-02-14T04:33:14.469Z,20.05
2023-02-14T04:38:19.270Z,22.70
2023-02-14T04:43:25.062Z,17.83
2023-02-14T04:48:29.657Z,20.88
2023-02-14T04:53:34.180Z,17.33
2023-02-14T04:58:39.955Z,21.65
2023-02-14T05:03:44.315Z,22.67
2023-02-14T05:08:48.699Z,19.50
2023-02-14T05:13:54.577Z,19.35
2023-02-14T05:18:58.912Z,20.30
2023-02-14T05:24:03.451Z,18.85
2023-02-14T05:29:09.349Z,23.67
2023-02-14T05:34:14.162Z,21.05
2023-02-14T05:44:26.051Z,24.92
2023-02-14T05:49:30.173Z,24.55
2023-02-14T05:54:34.707Z,22.67
2023-02-14T06:04:46.699Z,22.73
2023-02-14T06:09:51.115Z,26.27
2023-02-14T06:14:56.820Z,21.70
2023-02-14T06:20:02.556Z,22.33
2023-02-14T06:25:08.000Z,22.30
2023-02-14T06:30:16.133Z,22.42
2023-02-14T06:35:20.670Z,27.63
2023-02-14T06:40:25.876Z,24.42
2023-02-14T06:45:31.997Z,24.80
2023-02-14T06:50:37.274Z,26.45
2023-02-14T06:55:43.783Z,24.58
2023-02-14T07:00:50.756Z,23.35
2023-02-14T07:05:55.790Z,22.55
2023-02-14T07:11:00.901Z,25.77
2023-02-14T07:16:07.347Z,23.63
2023-02-14T07:21:11.716Z,28.48
2023-02-14T07:26:18.297Z,24.55
2023-02-14T07:31:24.730Z,26.60
2023-02-14T07:36:29.432Z,20.13
2023-02-14T07:41:33.563Z,23.60
2023-02-14T07:46:43.581Z,23.83
2023-02-14T07:51:47.800Z,26.75
2023-02-14T07:56:52.211Z,24.58
2023-02-14T08:12:24.574Z,24.67
2023-02-14T08:17:30.546Z,25.13
2023-02-14T08:22:34.779Z,22.70
2023-02-14T08:27:39.747Z,24.08
2023-02-14T08:32:45.837Z,22.85
2023-02-14T08:37:50.422Z,26.45
2023-02-14T08:42:54.703Z,22.30
2023-02-14T08:48:04.905Z,21.90
2023-02-14T08:53:10.401Z,22.38
2023-02-14T08:58:14.957Z,24.92
2023-02-14T09:03:21.142Z,22.50
2023-02-14T09:08:25.759Z,26.02
2023-02-14T09:13:30.615Z,22.27
2023-02-14T09:23:41.987Z,21.23
2023-02-14T09:28:46.873Z,19.90
2023-02-14T09:39:14.768Z,20.77
2023-02-14T09:44:28.396Z,18.35
2023-02-14T09:49:39.999Z,19.17
2023-02-14T09:54:49.571Z,18.80
2023-02-14T10:00:00.796Z,17.20
2023-02-14T10:05:14.990Z,19.70
2023-02-14T10:10:26.536Z,22.80
2023-02-14T10:15:35.769Z,15.98
2023-02-14T10:20:46.474Z,20.20
2023-02-14T10:25:56.340Z,18.15
2023-02-14T10:31:21.298Z,19.25
2023-02-14T10:37:05.967Z,19.92
2023-02-14T10:42:23.587Z,21.80
2023-02-14T10:47:47.099Z,18.95
2023-02-14T10:53:06.073Z,21.50
2023-02-14T10:58:16.477Z,22.83
2023-02-14T11:03:21.833Z,18.73
2023-02-14T11:08:33.900Z,18.90
2023-02-14T11:13:42.655Z,23.75
2023-02-14T11:18:48.113Z,16.52
2023-02-14T11:23:54.006Z,15.00
2023-02-14T11:29:02.341Z,17.67
2023-02-14T11:34:24.939Z,20.08
2023-02-14T11:39:34.748Z,18.33
2023-02-14T11:44:44.206Z,18.50
2023-02-14T11:49:57.406Z,18.55
2023-02-14T11:55:03.299Z,17.38
2023-02-14T12:00:18.258Z,16.65
2023-02-14T12:05:28.933Z,16.23
2023-02-14T12:10:37.335Z,19.85
2023-02-14T12:15:53.685Z,13.52
2023-02-14T12:21:04.977Z,17.00
2023-02-14T12:26:24.012Z,18.50
2023-02-14T12:31:28.468Z,14.90
2023-02-14T12:37:12.239Z,18.23
2023-02-14T12:42:35.112Z,14.48
2023-02-14T12:47:51.280Z,19.00
2023-02-14T12:53:30.602Z,14.93
2023-02-14T12:58:51.117Z,13.45
2023-02-14T13:04:23.472Z,14.60
2023-02-14T13:09:38.000Z,13.05
2023-02-14T13:14:59.121Z,15.43
2023-02-14T13:20:27.553Z,15.88
2023-02-14T13:25:37.418Z,12.02
2023-02-14T13:30:44.534Z,13.13
2023-02-14T13:35:50.047Z,12.65
2023-02-14T13:40:56.397Z,16.02
2023-02-14T13:46:05.108Z,13.68
2023-02-14T13:51:11.420Z,14.13
2023-02-14T13:56:35.846Z,18.67
2023-02-14T14:01:48.205Z,13.50
2023-02-14T14:07:23.208Z,11.65
2023-02-14T14:12:45.953Z,12.20
2023-02-14T14:18:32.771Z,14.40
2023-02-14T14:23:38.614Z,16.70
2023-02-14T14:28:47.710Z,19.58
2023-02-14T14:34:03.475Z,15.07
2023-02-14T14:39:10.648Z,12.25
2023-02-14T14:44:16.384Z,17.70
2023-02-14T14:49:22.582Z,15.25
2023-02-14T14:54:27.703Z,14.82
2023-02-14T15:04:40.652Z,15.07
2023-02-14T15:09:45.665Z,13.95
2023-02-14T15:14:54.671Z,16.58
2023-02-14T15:20:04.579Z,14.90
2023-02-14T15:25:12.727Z,15.98
2023-02-14T15:30:29.824Z,15.10
2023-02-14T15:35:42.267Z,18.52
2023-02-14T15:40:47.087Z,14.68
2023-02-14T15:45:56.566Z,20.48
2023-02-14T15:51:06.336Z,18.95
2023-02-14T15:56:22.058Z,17.25
2023-02-14T16:01:27.366Z,19.58
2023-02-14T16:06:38.561Z,16.10
2023-02-14T16:11:44.044Z,20.48
2023-02-14T16:17:00.805Z,19.00
2023-02-14T16:22:08.344Z,18.45
2023-02-14T16:27:13.364Z,18.13
2023-02-14T16:32:22.889Z,16.52
2023-02-14T16:37:33.254Z,14.55
2023-02-14T16:42:39.863Z,16.98
2023-02-14T16:47:47.161Z,15.38
2023-02-14T16:52:56.078Z,17.08
2023-02-14T16:58:01.726Z,16.10
2023-02-14T17:03:07.272Z,15.15
2023-02-14T17:08:15.079Z,16.70
2023-02-14T17:13:23.960Z,17.40
2023-02-14T17:18:29.006Z,24.42
2023-02-14T17:23:34.817Z,22.77
2023-02-14T17:28:39.252Z,24.52
2023-02-14T17:33:43.756Z,22.05
2023-02-14T17:43:55.448Z,22.48
2023-02-14T17:49:02.666Z,26.27
2023-02-14T17:54:08.422Z,23.80
2023-02-14T17:59:12.828Z,24.30
2023-02-14T18:04:16.999Z,24.52
2023-02-14T18:09:23.604Z,22.73
2023-02-14T18:14:28.641Z,27.02
2023-02-14T18:19:33.686Z,21.75
2023-02-14T18:24:39.696Z,31.00
2023-02-14T18:29:43.897Z,25.05
2023-02-14T18:34:48.270Z,32.58
2023-02-14T18:39:53.775Z,30.08
2023-02-14T18:44:58.012Z,28.48
2023-02-14T18:50:02.158Z,29.77
2023-02-14T18:55:08.702Z,32.67
2023-02-14T19:00:15.871Z,29.90
2023-02-14T19:05:20.694Z,29.88
2023-02-14T19:10:26.493Z,30.92
2023-02-14T19:15:30.742Z,29.70
2023-02-14T19:20:35.323Z,31.45
2023-02-14T19:25:43.080Z,28.30
2023-02-14T19:30:48.098Z,31.13
2023-02-14T19:36:02.013Z,29.33
2023-02-14T19:41:14.593Z,28.27
2023-02-14T19:46:21.180Z,30.45
2023-02-14T19:51:28.097Z,30.35
2023-02-14T19:56:36.482Z,28.73
2023-02-14T20:01:43.127Z,31.42
2023-02-14T20:06:49.255Z,33.20
2023-02-14T20:11:56.726Z,34.22
2023-02-14T20:17:03.919Z,32.22
2023-02-14T20:22:08.503Z,29.77
2023-02-14T20:27:14.386Z,30.63
2023-02-14T20:32:19.095Z,28.55
2023-02-14T20:37:23.682Z,28.25
2023-02-14T20:42:29.561Z,25.88
2023-02-14T20:47:34.259Z,25.98
2023-02-14T20:52:38.631Z,22.58
2023-02-14T20:57:45.647Z,27.60
2023-02-14T21:02:50.081Z,27.45
2023-02-14T21:07:54.354Z,28.23
2023-02-14T21:13:00.209Z,22.48
2023-02-14T21:18:04.746Z,27.85
2023-02-14T21:23:08.958Z,24.27
2023-02-14T21:28:14.989Z,24.50
2023-02-14T21:33:19.697Z,23.70
2023-02-14T21:38:24.086Z,30.90
2023-02-14T21:43:30.092Z,24.98
2023-02-14T21:48:52.635Z,30.65
2023-02-14T21:54:00.214Z,24.08
2023-02-14T21:59:06.218Z,24.75
2023-02-14T22:04:13.470Z,22.70
2023-02-14T22:09:18.893Z,21.83
2023-02-14T22:14:24.660Z,21.55
2023-02-14T22:19:28.976Z,27.02
2023-02-14T22:24:33.196Z,23.42
2023-02-14T22:29:39.282Z,24.48
2023-02-14T22:34:43.753Z,28.30
2023-02-14T22:39:48.116Z,22.98
2023-02-14T22:44:53.654Z,26.17
2023-02-14T22:50:00.100Z,26.50
2023-02-14T22:55:05.468Z,27.10
2023-02-14T23:00:12.602Z,26.10
2023-02-14T23:05:17.255Z,22.58
2023-02-14T23:10:21.779Z,22.85
2023-02-14T23:15:45.209Z,26.38
2023-02-14T23:21:07.357Z,23.10
2023-02-14T23:26:11.466Z,29.30
2023-02-14T23:31:17.415Z,28.33
2023-02-14T23:36:22.020Z,28.40
2023-02-14T23:41:43.634Z,26.38
2023-02-14T23:46:50.635Z,34.90
2023-02-14T23:51:56.672Z,28.70
2023-02-14T23:57:01.342Z,24.15
